Sidell, Illinois
Current Conditions -  °F | °C
As of 8:35 AM on Saturday 25 Oct 2014 (Local Time) from KPRG Reporting Station
Clear Clear  
Wind Chill: 57°   Ceiling: Unl
Heat Index: 57°   Visibility: 7mi
Dew Point: 55°   Wind: 5mph
Humidity: 93%   Direction: 270°W
Pressure: 30.01"   Gusts: NA
Location:  39.91°N, 87.82°W
Report Text: KPRG 251335Z AUTO 27004KT 7SM CLR 14/13 A3001 RMK AO2 T01370126
Loading
Personal Weather Stations






























Interactive Weather Map
Tropical Storm Tracking
New forecast layout! Learn more

10-Day Weather Forecast

Advertisements
Track Severe Weather on mobile